SLC weather

Salt Lake City International Airport
Salt Lake City, Utah, United States

Public forecast

Using degrees Fahrenheit for public forecast. Weather courtesy of forecast.io.

METAR (pilot weather report)

Retrieved 2017/06/27 02:54 UTC (7 minutes ago):

KSLC 270254Z COR 22012G26KT 10SM SCT095 BKN150 BKN230 34/01 A2987 RMK AO2 PK WND 23028/0228 SLP046 VIRGA CB DSNT W SH DSNT NW T03390006 55004

TAF (pilot weather forecast)

Forecast is more than 12 hours old.

Retrieved 2017/06/26 00:36 UTC (1 day ago):

TAF KSLC 262333Z 2700/2806 17012G20KT P6SM VCSH SCT100 SCT150 FM270400 14010KT P6SM FEW100 SCT200 FM271600 30010KT P6SM VCSH SCT100 BKN150 FM280300 14008KT P6SM SCT080 SCT120